sensor_id;sensor_type;location;lat;lon;timestamp;pressure;altitude;pressure_sealevel;temperature;humidity
24620;BME280;12763;55.802;37.404;2022-08-01T00:01:07;99739.47;;;25.54;40.88
24620;BME280;12763;55.802;37.404;2022-08-01T00:03:33;99734.72;;;25.49;40.76
24620;BME280;12763;55.802;37.404;2022-08-01T00:05:59;99736.66;;;25.67;40.94
24620;BME280;12763;55.802;37.404;2022-08-01T00:08:25;99739.59;;;25.62;40.59
24620;BME280;12763;55.802;37.404;2022-08-01T00:10:51;99736.94;;;25.52;40.76
24620;BME280;12763;55.802;37.404;2022-08-01T00:13:17;99731.53;;;25.24;41.52
24620;BME280;12763;55.802;37.404;2022-08-01T00:15:43;99727.16;;;25.31;41.59
24620;BME280;12763;55.802;37.404;2022-08-01T00:18:09;99725.63;;;25.52;40.92
24620;BME280;12763;55.802;37.404;2022-08-01T00:20:35;99722.16;;;25.42;41.31
24620;BME280;12763;55.802;37.404;2022-08-01T00:23:02;99721.31;;;25.41;40.83
24620;BME280;12763;55.802;37.404;2022-08-01T00:25:28;99723.66;;;25.07;41.68
24620;BME280;12763;55.802;37.404;2022-08-01T00:27:54;99720.50;;;25.08;41.42
24620;BME280;12763;55.802;37.404;2022-08-01T00:30:20;99719.59;;;25.13;41.52
24620;BME280;12763;55.802;37.404;2022-08-01T00:32:46;99728.81;;;25.19;41.65
24620;BME280;12763;55.802;37.404;2022-08-01T00:35:13;99722.09;;;25.15;41.22
24620;BME280;12763;55.802;37.404;2022-08-01T00:37:39;99728.97;;;25.08;41.50
24620;BME280;12763;55.802;37.404;2022-08-01T00:40:06;99722.13;;;25.28;40.94
24620;BME280;12763;55.802;37.404;2022-08-01T00:42:32;99721.72;;;25.21;41.21
24620;BME280;12763;55.802;37.404;2022-08-01T00:44:58;99714.78;;;25.27;41.01
24620;BME280;12763;55.802;37.404;2022-08-01T00:47:26;99724.84;;;25.33;41.08
24620;BME280;12763;55.802;37.404;2022-08-01T00:49:52;99730.44;;;25.06;41.31
24620;BME280;12763;55.802;37.404;2022-08-01T00:52:18;99732.66;;;25.09;41.27
24620;BME280;12763;55.802;37.404;2022-08-01T00:54:45;99728.63;;;25.29;41.20
24620;BME280;12763;55.802;37.404;2022-08-01T00:57:11;99728.84;;;25.32;40.87
24620;BME280;12763;55.802;37.404;2022-08-01T00:59:38;99721.50;;;25.31;41.49
24620;BME280;12763;55.802;37.404;2022-08-01T01:02:04;99729.66;;;25.46;40.83
24620;BME280;12763;55.802;37.404;2022-08-01T01:04:30;99729.47;;;25.29;40.76
24620;BME280;12763;55.802;37.404;2022-08-01T01:10:11;99720.94;;;25.02;41.63
24620;BME280;12763;55.802;37.404;2022-08-01T01:18:10;99719.94;;;24.93;41.28
24620;BME280;12763;55.802;37.404;2022-08-01T01:20:40;99722.88;;;24.88;41.89
24620;BME280;12763;55.802;37.404;2022-08-01T01:28:48;99705.41;;;25.45;41.06
24620;BME280;12763;55.802;37.404;2022-08-01T01:31:15;99710.72;;;25.33;40.42
24620;BME280;12763;55.802;37.404;2022-08-01T01:33:43;99716.28;;;25.38;40.57
24620;BME280;12763;55.802;37.404;2022-08-01T01:36:11;99711.25;;;25.35;40.84
24620;BME280;12763;55.802;37.404;2022-08-01T01:38:44;99714.72;;;25.32;40.95
24620;BME280;12763;55.802;37.404;2022-08-01T01:41:13;99707.50;;;25.40;40.84
24620;BME280;12763;55.802;37.404;2022-08-01T01:43:40;99714.81;;;25.41;40.94
24620;BME280;12763;55.802;37.404;2022-08-01T01:46:09;99707.38;;;25.31;40.69
24620;BME280;12763;55.802;37.404;2022-08-01T01:48:36;99714.38;;;25.20;40.61
24620;BME280;12763;55.802;37.404;2022-08-01T01:51:03;99713.56;;;25.33;41.73
24620;BME280;12763;55.802;37.404;2022-08-01T01:53:33;99712.22;;;25.44;40.59
24620;BME280;12763;55.802;37.404;2022-08-01T01:56:00;99710.47;;;25.48;40.43
24620;BME280;12763;55.802;37.404;2022-08-01T01:58:28;99717.97;;;25.39;40.51
24620;BME280;12763;55.802;37.404;2022-08-01T02:00:57;99711.66;;;25.29;40.91
24620;BME280;12763;55.802;37.404;2022-08-01T02:03:26;99711.81;;;25.05;41.22
24620;BME280;12763;55.802;37.404;2022-08-01T02:05:53;99709.69;;;24.97;41.34
24620;BME280;12763;55.802;37.404;2022-08-01T02:08:20;99705.19;;;24.82;41.85
24620;BME280;12763;55.802;37.404;2022-08-01T02:10:50;99707.63;;;25.02;41.56
24620;BME280;12763;55.802;37.404;2022-08-01T02:13:37;99704.94;;;25.11;41.50
24620;BME280;12763;55.802;37.404;2022-08-01T02:16:07;99706.53;;;24.85;41.51
24620;BME280;12763;55.802;37.404;2022-08-01T02:18:37;99703.50;;;24.63;42.02
24620;BME280;12763;55.802;37.404;2022-08-01T02:21:05;99709.97;;;24.63;42.14
24620;BME280;12763;55.802;37.404;2022-08-01T02:23:36;99706.88;;;24.97;41.84
24620;BME280;12763;55.802;37.404;2022-08-01T02:26:08;99707.44;;;24.99;41.86
24620;BME280;12763;55.802;37.404;2022-08-01T02:28:41;99710.97;;;24.91;42.04
24620;BME280;12763;55.802;37.404;2022-08-01T02:31:14;99700.09;;;24.98;41.98
24620;BME280;12763;55.802;37.404;2022-08-01T02:33:44;99704.91;;;24.97;42.28
24620;BME280;12763;55.802;37.404;2022-08-01T02:36:12;99703.28;;;25.10;41.96
24620;BME280;12763;55.802;37.404;2022-08-01T02:38:44;99706.63;;;25.12;41.69
24620;BME280;12763;55.802;37.404;2022-08-01T02:41:19;99714.25;;;25.11;42.43
24620;BME280;12763;55.802;37.404;2022-08-01T02:43:47;99712.97;;;25.50;41.90
24620;BME280;12763;55.802;37.404;2022-08-01T02:46:21;99718.53;;;25.68;40.76
24620;BME280;12763;55.802;37.404;2022-08-01T02:48:52;99715.91;;;25.58;40.74
24620;BME280;12763;55.802;37.404;2022-08-01T02:51:21;99707.03;;;25.19;41.49
24620;BME280;12763;55.802;37.404;2022-08-01T02:53:50;99703.06;;;25.20;41.69
24620;BME280;12763;55.802;37.404;2022-08-01T02:56:18;99706.03;;;25.42;41.33
24620;BME280;12763;55.802;37.404;2022-08-01T02:58:47;99712.13;;;25.63;41.02
24620;BME280;12763;55.802;37.404;2022-08-01T03:01:15;99707.03;;;25.51;41.49
24620;BME280;12763;55.802;37.404;2022-08-01T03:03:43;99709.88;;;25.33;41.60
24620;BME280;12763;55.802;37.404;2022-08-01T03:06:10;99708.38;;;25.54;41.35
24620;BME280;12763;55.802;37.404;2022-08-01T03:08:37;99709.25;;;25.54;41.53
24620;BME280;12763;55.802;37.404;2022-08-01T03:11:06;99713.41;;;25.57;41.49
24620;BME280;12763;55.802;37.404;2022-08-01T03:13:32;99712.56;;;25.56;41.38
24620;BME280;12763;55.802;37.404;2022-08-01T03:15:59;99716.25;;;25.71;40.92
24620;BME280;12763;55.802;37.404;2022-08-01T03:18:28;99709.84;;;25.79;40.97
24620;BME280;12763;55.802;37.404;2022-08-01T03:20:55;99716.84;;;25.95;41.19
24620;BME280;12763;55.802;37.404;2022-08-01T03:23:22;99719.69;;;25.95;40.47
24620;BME280;12763;55.802;37.404;2022-08-01T03:25:50;99718.34;;;25.79;41.03
24620;BME280;12763;55.802;37.404;2022-08-01T03:28:18;99714.03;;;25.95;40.35
24620;BME280;12763;55.802;37.404;2022-08-01T03:30:47;99711.44;;;25.71;41.04
24620;BME280;12763;55.802;37.404;2022-08-01T03:33:15;99697.59;;;25.97;40.91
24620;BME280;12763;55.802;37.404;2022-08-01T03:35:49;99708.91;;;26.46;40.65
24620;BME280;12763;55.802;37.404;2022-08-01T03:38:23;99717.56;;;26.63;39.98
24620;BME280;12763;55.802;37.404;2022-08-01T03:41:02;99709.06;;;26.63;40.22
24620;BME280;12763;55.802;37.404;2022-08-01T03:43:38;99700.97;;;26.48;40.25
24620;BME280;12763;55.802;37.404;2022-08-01T03:46:32;99701.69;;;26.18;40.52
24620;BME280;12763;55.802;37.404;2022-08-01T03:49:05;99703.75;;;26.12;40.78
24620;BME280;12763;55.802;37.404;2022-08-01T03:51:32;99701.47;;;26.01;40.46
24620;BME280;12763;55.802;37.404;2022-08-01T03:54:00;99697.69;;;26.05;40.82
24620;BME280;12763;55.802;37.404;2022-08-01T03:56:27;99701.47;;;26.14;40.64
24620;BME280;12763;55.802;37.404;2022-08-01T03:58:59;99703.75;;;26.26;40.63
24620;BME280;12763;55.802;37.404;2022-08-01T04:01:26;99696.47;;;26.69;40.19
24620;BME280;12763;55.802;37.404;2022-08-01T04:03:53;99697.94;;;26.80;39.75
24620;BME280;12763;55.802;37.404;2022-08-01T04:06:20;99693.84;;;26.73;39.89
24620;BME280;12763;55.802;37.404;2022-08-01T04:08:46;99694.88;;;26.99;39.35
24620;BME280;12763;55.802;37.404;2022-08-01T04:11:22;99702.31;;;26.87;39.56
24620;BME280;12763;55.802;37.404;2022-08-01T04:13:51;99687.19;;;26.91;39.64
24620;BME280;12763;55.802;37.404;2022-08-01T04:16:18;99690.41;;;26.62;39.82
24620;BME280;12763;55.802;37.404;2022-08-01T04:18:44;99688.44;;;26.27;40.69
24620;BME280;12763;55.802;37.404;2022-08-01T04:21:10;99692.03;;;26.19;40.52
24620;BME280;12763;55.802;37.404;2022-08-01T04:23:38;99694.69;;;26.38;40.49
24620;BME280;12763;55.802;37.404;2022-08-01T04:26:07;99697.13;;;26.66;40.06
24620;BME280;12763;55.802;37.404;2022-08-01T04:28:36;99687.84;;;26.74;39.52
24620;BME280;12763;55.802;37.404;2022-08-01T04:31:06;99692.59;;;26.65;40.11
24620;BME280;12763;55.802;37.404;2022-08-01T04:33:35;99696.75;;;26.59;40.08
24620;BME280;12763;55.802;37.404;2022-08-01T04:36:06;99698.66;;;26.72;39.99
24620;BME280;12763;55.802;37.404;2022-08-01T04:38:34;99698.53;;;26.77;39.67
24620;BME280;12763;55.802;37.404;2022-08-01T04:41:02;99694.44;;;27.06;39.19
24620;BME280;12763;55.802;37.404;2022-08-01T04:43:32;99698.38;;;26.96;39.82
24620;BME280;12763;55.802;37.404;2022-08-01T04:46:01;99692.50;;;26.70;39.44
24620;BME280;12763;55.802;37.404;2022-08-01T04:48:29;99700.41;;;25.97;40.29
24620;BME280;12763;55.802;37.404;2022-08-01T04:50:57;99703.38;;;25.64;41.36
24620;BME280;12763;55.802;37.404;2022-08-01T04:53:23;99702.06;;;26.25;40.30
24620;BME280;12763;55.802;37.404;2022-08-01T04:55:49;99689.78;;;26.65;40.12
24620;BME280;12763;55.802;37.404;2022-08-01T04:58:15;99698.88;;;26.76;39.62
24620;BME280;12763;55.802;37.404;2022-08-01T05:00:41;99697.94;;;26.80;39.17
24620;BME280;12763;55.802;37.404;2022-08-01T05:03:07;99699.03;;;26.57;39.64
24620;BME280;12763;55.802;37.404;2022-08-01T05:05:34;99710.28;;;26.49;40.00
24620;BME280;12763;55.802;37.404;2022-08-01T05:08:01;99706.66;;;26.35;39.84
24620;BME280;12763;55.802;37.404;2022-08-01T05:10:27;99709.63;;;25.75;41.09
24620;BME280;12763;55.802;37.404;2022-08-01T05:12:54;99714.22;;;26.25;40.41
24620;BME280;12763;55.802;37.404;2022-08-01T05:15:20;99705.94;;;26.65;40.23
24620;BME280;12763;55.802;37.404;2022-08-01T05:17:46;99698.69;;;26.95;39.02
24620;BME280;12763;55.802;37.404;2022-08-01T05:20:12;99702.09;;;27.05;38.85
24620;BME280;12763;55.802;37.404;2022-08-01T05:22:39;99699.06;;;27.02;39.25
24620;BME280;12763;55.802;37.404;2022-08-01T05:25:05;99702.66;;;27.16;39.35
24620;BME280;12763;55.802;37.404;2022-08-01T05:27:32;99708.19;;;27.21;39.07
24620;BME280;12763;55.802;37.404;2022-08-01T05:29:58;99701.03;;;26.93;38.71
24620;BME280;12763;55.802;37.404;2022-08-01T05:32:24;99702.31;;;26.87;38.68
24620;BME280;12763;55.802;37.404;2022-08-01T05:34:49;99701.91;;;26.79;38.58
24620;BME280;12763;55.802;37.404;2022-08-01T05:37:15;99691.22;;;26.99;39.10
24620;BME280;12763;55.802;37.404;2022-08-01T05:39:41;99697.53;;;26.96;39.02
24620;BME280;12763;55.802;37.404;2022-08-01T05:42:07;99698.88;;;26.98;39.40
24620;BME280;12763;55.802;37.404;2022-08-01T05:44:33;99689.56;;;26.98;38.86
24620;BME280;12763;55.802;37.404;2022-08-01T05:46:59;99703.03;;;26.56;39.45
24620;BME280;12763;55.802;37.404;2022-08-01T05:49:26;99696.06;;;26.62;39.75
24620;BME280;12763;55.802;37.404;2022-08-01T05:51:51;99702.31;;;26.87;39.22
24620;BME280;12763;55.802;37.404;2022-08-01T05:54:18;99693.53;;;26.97;38.66
24620;BME280;12763;55.802;37.404;2022-08-01T05:56:44;99698.91;;;26.62;38.88
24620;BME280;12763;55.802;37.404;2022-08-01T05:59:10;99693.38;;;26.57;39.01
24620;BME280;12763;55.802;37.404;2022-08-01T06:01:36;99698.19;;;26.57;38.79
24620;BME280;12763;55.802;37.404;2022-08-01T06:04:02;99691.22;;;26.99;38.25
24620;BME280;12763;55.802;37.404;2022-08-01T06:06:28;99693.94;;;26.81;38.42
24620;BME280;12763;55.802;37.404;2022-08-01T06:08:55;99687.91;;;26.61;39.01
24620;BME280;12763;55.802;37.404;2022-08-01T06:11:21;99693.66;;;27.14;38.75
24620;BME280;12763;55.802;37.404;2022-08-01T06:13:46;99693.38;;;27.24;37.84
24620;BME280;12763;55.802;37.404;2022-08-01T06:16:13;99696.81;;;26.90;38.49
24620;BME280;12763;55.802;37.404;2022-08-01T06:18:39;99704.38;;;26.59;39.29
24620;BME280;12763;55.802;37.404;2022-08-01T06:21:05;99703.16;;;26.87;38.48
24620;BME280;12763;55.802;37.404;2022-08-01T06:23:34;99701.09;;;26.65;37.75
24620;BME280;12763;55.802;37.404;2022-08-01T06:26:00;99701.97;;;27.10;37.43
24620;BME280;12763;55.802;37.404;2022-08-01T06:28:26;99700.19;;;26.92;37.74
24620;BME280;12763;55.802;37.404;2022-08-01T06:30:52;99704.00;;;27.18;37.75
24620;BME280;12763;55.802;37.404;2022-08-01T06:33:19;99710.06;;;27.25;37.76
24620;BME280;12763;55.802;37.404;2022-08-01T06:35:44;99708.34;;;27.77;37.50
24620;BME280;12763;55.802;37.404;2022-08-01T06:38:10;99708.00;;;27.79;36.87
24620;BME280;12763;55.802;37.404;2022-08-01T06:40:36;99703.75;;;27.37;37.19
24620;BME280;12763;55.802;37.404;2022-08-01T06:43:04;99708.91;;;27.04;37.42
24620;BME280;12763;55.802;37.404;2022-08-01T06:45:30;99704.41;;;27.25;37.01
24620;BME280;12763;55.802;37.404;2022-08-01T06:47:56;99709.22;;;27.25;37.32
24620;BME280;12763;55.802;37.404;2022-08-01T06:50:22;99707.03;;;27.44;37.18
24620;BME280;12763;55.802;37.404;2022-08-01T06:52:48;99706.53;;;27.42;37.15
24620;BME280;12763;55.802;37.404;2022-08-01T06:55:14;99708.28;;;27.69;36.83
24620;BME280;12763;55.802;37.404;2022-08-01T06:57:51;99714.28;;;27.67;36.11
24620;BME280;12763;55.802;37.404;2022-08-01T07:00:19;99712.47;;;27.71;37.13
24620;BME280;12763;55.802;37.404;2022-08-01T07:02:52;99719.94;;;27.67;36.92
24620;BME280;12763;55.802;37.404;2022-08-01T07:05:19;99718.63;;;27.73;37.52
24620;BME280;12763;55.802;37.404;2022-08-01T07:07:45;99721.28;;;27.61;37.21
24620;BME280;12763;55.802;37.404;2022-08-01T07:10:11;99715.03;;;27.90;37.43
24620;BME280;12763;55.802;37.404;2022-08-01T07:12:37;99713.00;;;28.21;37.03
24620;BME280;12763;55.802;37.404;2022-08-01T07:15:05;99718.53;;;28.52;36.39
24620;BME280;12763;55.802;37.404;2022-08-01T07:17:31;99718.34;;;28.40;35.82
24620;BME280;12763;55.802;37.404;2022-08-01T07:19:58;99711.34;;;28.46;35.89
24620;BME280;12763;55.802;37.404;2022-08-01T07:22:24;99718.38;;;28.57;36.52
24620;BME280;12763;55.802;37.404;2022-08-01T07:24:50;99711.19;;;28.51;36.09
24620;BME280;12763;55.802;37.404;2022-08-01T07:27:15;99704.84;;;28.54;35.93
24620;BME280;12763;55.802;37.404;2022-08-01T07:29:41;99707.84;;;28.40;36.20
24620;BME280;12763;55.802;37.404;2022-08-01T07:32:07;99707.38;;;28.64;35.72
24620;BME280;12763;55.802;37.404;2022-08-01T07:34:33;99707.03;;;28.57;35.60
24620;BME280;12763;55.802;37.404;2022-08-01T07:36:59;99703.69;;;28.46;35.28
24620;BME280;12763;55.802;37.404;2022-08-01T07:39:25;99707.72;;;28.71;35.57
24620;BME280;12763;55.802;37.404;2022-08-01T07:41:51;99707.22;;;28.69;35.76
24620;BME280;12763;55.802;37.404;2022-08-01T07:44:17;99708.31;;;28.34;36.03
24620;BME280;12763;55.802;37.404;2022-08-01T07:46:43;99702.84;;;27.81;35.76
24620;BME280;12763;55.802;37.404;2022-08-01T07:49:08;99704.78;;;27.63;36.61
24620;BME280;12763;55.802;37.404;2022-08-01T07:51:34;99698.06;;;27.51;36.37
24620;BME280;12763;55.802;37.404;2022-08-01T07:54:00;99703.38;;;27.91;36.44
24620;BME280;12763;55.802;37.404;2022-08-01T07:56:26;99708.19;;;27.82;36.62
24620;BME280;12763;55.802;37.404;2022-08-01T07:58:52;99708.59;;;28.07;36.73
24620;BME280;12763;55.802;37.404;2022-08-01T08:01:17;99712.16;;;27.81;37.13
24620;BME280;12763;55.802;37.404;2022-08-01T08:03:45;99702.97;;;28.24;36.74
24620;BME280;12763;55.802;37.404;2022-08-01T08:06:11;99706.00;;;28.36;36.71
24620;BME280;12763;55.802;37.404;2022-08-01T08:08:36;99714.19;;;28.54;35.77
24620;BME280;12763;55.802;37.404;2022-08-01T08:11:02;99701.88;;;28.85;35.46
24620;BME280;12763;55.802;37.404;2022-08-01T08:13:28;99703.00;;;29.01;35.68
24620;BME280;12763;55.802;37.404;2022-08-01T08:15:54;99705.66;;;29.14;36.18
24620;BME280;12763;55.802;37.404;2022-08-01T08:18:20;99696.28;;;29.40;35.57
24620;BME280;12763;55.802;37.404;2022-08-01T08:20:46;99697.59;;;29.42;35.51
24620;BME280;12763;55.802;37.404;2022-08-01T08:23:11;99707.38;;;28.98;35.96
24620;BME280;12763;55.802;37.404;2022-08-01T08:25:56;99695.31;;;29.19;35.14
24620;BME280;12763;55.802;37.404;2022-08-01T08:28:22;99697.31;;;29.09;35.00
24620;BME280;12763;55.802;37.404;2022-08-01T08:30:48;99696.00;;;28.98;35.35
24620;BME280;12763;55.802;37.404;2022-08-01T08:33:14;99692.78;;;29.17;35.87
24620;BME280;12763;55.802;37.404;2022-08-01T08:35:40;99699.81;;;29.11;34.64
24620;BME280;12763;55.802;37.404;2022-08-01T08:38:08;99692.25;;;29.41;34.60
24620;BME280;12763;55.802;37.404;2022-08-01T08:40:35;99692.94;;;29.38;34.69
24620;BME280;12763;55.802;37.404;2022-08-01T08:43:04;99690.84;;;29.55;33.91
24620;BME280;12763;55.802;37.404;2022-08-01T08:45:31;99687.13;;;29.26;34.33
24620;BME280;12763;55.802;37.404;2022-08-01T08:47:58;99694.84;;;28.91;33.96
24620;BME280;12763;55.802;37.404;2022-08-01T08:50:25;99688.31;;;29.07;33.56
24620;BME280;12763;55.802;37.404;2022-08-01T08:52:53;99679.91;;;29.20;33.54
24620;BME280;12763;55.802;37.404;2022-08-01T08:55:20;99679.72;;;29.33;33.46
24620;BME280;12763;55.802;37.404;2022-08-01T08:57:47;99691.63;;;29.27;32.89
24620;BME280;12763;55.802;37.404;2022-08-01T09:00:13;99681.06;;;29.36;34.38
24620;BME280;12763;55.802;37.404;2022-08-01T09:02:44;99677.31;;;29.52;33.81
24620;BME280;12763;55.802;37.404;2022-08-01T09:05:11;99679.22;;;29.40;33.08
24620;BME280;12763;55.802;37.404;2022-08-01T09:07:38;99670.63;;;29.57;32.74
24620;BME280;12763;55.802;37.404;2022-08-01T09:10:05;99678.41;;;29.31;32.41
24620;BME280;12763;55.802;37.404;2022-08-01T09:12:31;99679.84;;;29.54;32.98
24620;BME280;12763;55.802;37.404;2022-08-01T09:14:57;99679.00;;;29.53;33.28
24620;BME280;12763;55.802;37.404;2022-08-01T09:17:23;99675.19;;;29.49;32.80
24620;BME280;12763;55.802;37.404;2022-08-01T09:19:54;99676.94;;;29.07;34.43
24620;BME280;12763;55.802;37.404;2022-08-01T09:22:22;99676.06;;;29.33;33.14
24620;BME280;12763;55.802;37.404;2022-08-01T09:27:29;99675.56;;;29.77;32.52
24620;BME280;12763;55.802;37.404;2022-08-01T09:30:10;99668.16;;;30.14;32.92
24620;BME280;12763;55.802;37.404;2022-08-01T09:32:55;99666.03;;;30.32;32.33
24620;BME280;12763;55.802;37.404;2022-08-01T09:38:18;99673.72;;;29.81;31.80
24620;BME280;12763;55.802;37.404;2022-08-01T09:40:59;99679.06;;;30.33;31.63
24620;BME280;12763;55.802;37.404;2022-08-01T09:43:27;99671.47;;;30.45;32.09
24620;BME280;12763;55.802;37.404;2022-08-01T09:45:57;99678.28;;;30.53;31.61
24620;BME280;12763;55.802;37.404;2022-08-01T09:48:23;99672.59;;;30.53;31.19
24620;BME280;12763;55.802;37.404;2022-08-01T09:50:51;99677.84;;;30.83;30.85
24620;BME280;12763;55.802;37.404;2022-08-01T09:53:18;99669.38;;;30.75;30.61
24620;BME280;12763;55.802;37.404;2022-08-01T09:55:44;99663.47;;;30.18;30.92
24620;BME280;12763;55.802;37.404;2022-08-01T09:58:11;99664.16;;;30.15;32.00
24620;BME280;12763;55.802;37.404;2022-08-01T10:00:38;99661.22;;;30.85;31.37
24620;BME280;12763;55.802;37.404;2022-08-01T10:03:25;99655.81;;;31.37;30.48
24620;BME280;12763;55.802;37.404;2022-08-01T10:05:52;99650.81;;;31.67;30.28
24620;BME280;12763;55.802;37.404;2022-08-01T10:08:22;99653.19;;;31.89;30.17
24620;BME280;12763;55.802;37.404;2022-08-01T10:11:11;99652.56;;;31.96;29.79
24620;BME280;12763;55.802;37.404;2022-08-01T10:13:37;99652.22;;;32.10;29.56
24620;BME280;12763;55.802;37.404;2022-08-01T10:16:05;99652.78;;;32.39;29.86
24620;BME280;12763;55.802;37.404;2022-08-01T10:18:33;99652.09;;;32.30;29.91
24620;BME280;12763;55.802;37.404;2022-08-01T10:21:03;99656.38;;;32.24;29.09
24620;BME280;12763;55.802;37.404;2022-08-01T10:23:37;99658.88;;;31.89;28.52
24620;BME280;12763;55.802;37.404;2022-08-01T10:26:05;99658.41;;;31.99;28.63
24620;BME280;12763;55.802;37.404;2022-08-01T10:28:34;99653.78;;;32.07;28.77
24620;BME280;12763;55.802;37.404;2022-08-01T10:31:01;99651.03;;;32.11;28.71
24620;BME280;12763;55.802;37.404;2022-08-01T10:33:29;99646.84;;;31.60;29.47
24620;BME280;12763;55.802;37.404;2022-08-01T10:35:55;99653.72;;;32.31;29.39
24620;BME280;12763;55.802;37.404;2022-08-01T10:38:21;99653.81;;;32.47;29.67
24620;BME280;12763;55.802;37.404;2022-08-01T10:40:49;99646.94;;;32.76;29.13
24620;BME280;12763;55.802;37.404;2022-08-01T10:43:16;99654.78;;;33.19;28.37
24620;BME280;12763;55.802;37.404;2022-08-01T10:45:43;99652.06;;;33.10;27.86
24620;BME280;12763;55.802;37.404;2022-08-01T10:48:18;99657.31;;;32.80;26.73
24620;BME280;12763;55.802;37.404;2022-08-01T10:50:48;99641.19;;;32.88;27.31
24620;BME280;12763;55.802;37.404;2022-08-01T10:53:17;99640.75;;;33.29;26.80
24620;BME280;12763;55.802;37.404;2022-08-01T10:56:04;99648.59;;;33.32;26.54
24620;BME280;12763;55.802;37.404;2022-08-01T10:58:35;99642.84;;;33.60;26.88
24620;BME280;12763;55.802;37.404;2022-08-01T11:03:58;99638.03;;;33.80;25.96
24620;BME280;12763;55.802;37.404;2022-08-01T11:06:28;99636.66;;;33.74;26.90
24620;BME280;12763;55.802;37.404;2022-08-01T11:09:15;99641.31;;;33.50;26.53
24620;BME280;12763;55.802;37.404;2022-08-01T11:12:03;99639.97;;;33.76;27.11
24620;BME280;12763;55.802;37.404;2022-08-01T11:14:32;99642.94;;;34.83;25.68
24620;BME280;12763;55.802;37.404;2022-08-01T11:25:23;99635.59;;;34.48;26.21
24620;BME280;12763;55.802;37.404;2022-08-01T11:30:46;99621.59;;;35.42;24.66
24620;BME280;12763;55.802;37.404;2022-08-01T11:33:14;99620.78;;;36.13;24.35
24620;BME280;12763;55.802;37.404;2022-08-01T11:38:39;99624.38;;;35.16;24.14
24620;BME280;12763;55.802;37.404;2022-08-01T11:41:26;99619.25;;;33.98;24.69
24620;BME280;12763;55.802;37.404;2022-08-01T11:44:16;99618.88;;;34.15;26.58
24620;BME280;12763;55.802;37.404;2022-08-01T11:46:57;99624.34;;;34.04;25.99
24620;BME280;12763;55.802;37.404;2022-08-01T11:52:02;99618.19;;;34.56;26.62
24620;BME280;12763;55.802;37.404;2022-08-01T11:54:36;99623.03;;;35.32;24.26
24620;BME280;12763;55.802;37.404;2022-08-01T11:57:04;99613.50;;;35.93;22.89
24620;BME280;12763;55.802;37.404;2022-08-01T11:59:40;99602.41;;;37.11;22.48
24620;BME280;12763;55.802;37.404;2022-08-01T12:02:26;99611.56;;;37.60;22.47
24620;BME280;12763;55.802;37.404;2022-08-01T12:05:00;99606.38;;;37.36;21.78
24620;BME280;12763;55.802;37.404;2022-08-01T12:07:30;99601.47;;;37.40;22.55
24620;BME280;12763;55.802;37.404;2022-08-01T12:12:25;99596.59;;;38.39;21.42
24620;BME280;12763;55.802;37.404;2022-08-01T12:14:56;99604.41;;;38.45;21.93
24620;BME280;12763;55.802;37.404;2022-08-01T12:17:31;99600.19;;;38.29;21.95
24620;BME280;12763;55.802;37.404;2022-08-01T12:19:58;99599.53;;;37.91;21.53
24620;BME280;12763;55.802;37.404;2022-08-01T12:22:24;99599.69;;;38.16;20.91
24620;BME280;12763;55.802;37.404;2022-08-01T12:24:51;99605.78;;;38.69;21.60
24620;BME280;12763;55.802;37.404;2022-08-01T12:27:28;99594.81;;;36.95;22.54
24620;BME280;12763;55.802;37.404;2022-08-01T12:29:58;99591.38;;;37.16;22.19
24620;BME280;12763;55.802;37.404;2022-08-01T12:32:29;99592.22;;;37.17;21.30
24620;BME280;12763;55.802;37.404;2022-08-01T12:35:28;99585.16;;;37.51;21.34
24620;BME280;12763;55.802;37.404;2022-08-01T12:37:57;99594.09;;;37.39;22.08
24620;BME280;12763;55.802;37.404;2022-08-01T12:40:25;99593.78;;;37.91;21.62
24620;BME280;12763;55.802;37.404;2022-08-01T12:42:54;99593.31;;;38.47;21.47
24620;BME280;12763;55.802;37.404;2022-08-01T12:45:25;99586.47;;;38.76;20.50
24620;BME280;12763;55.802;37.404;2022-08-01T12:47:52;99584.44;;;38.84;21.55
24620;BME280;12763;55.802;37.404;2022-08-01T12:50:21;99592.50;;;38.47;21.78
24620;BME280;12763;55.802;37.404;2022-08-01T12:52:49;99589.59;;;36.68;23.47
24620;BME280;12763;55.802;37.404;2022-08-01T12:55:19;99576.34;;;35.32;24.35
24620;BME280;12763;55.802;37.404;2022-08-01T12:57:49;99580.50;;;33.85;25.52
24620;BME280;12763;55.802;37.404;2022-08-01T13:00:25;99567.44;;;33.05;26.86
24620;BME280;12763;55.802;37.404;2022-08-01T13:03:09;99569.94;;;32.79;27.68
24620;BME280;12763;55.802;37.404;2022-08-01T13:05:55;99563.16;;;32.56;27.61
24620;BME280;12763;55.802;37.404;2022-08-01T13:11:05;99557.00;;;31.41;29.22
24620;BME280;12763;55.802;37.404;2022-08-01T13:13:42;99566.41;;;31.54;28.74
24620;BME280;12763;55.802;37.404;2022-08-01T13:16:10;99558.69;;;31.55;28.83
24620;BME280;12763;55.802;37.404;2022-08-01T13:18:36;99558.69;;;31.55;28.79
24620;BME280;12763;55.802;37.404;2022-08-01T13:24:01;99546.03;;;31.07;28.97
24620;BME280;12763;55.802;37.404;2022-08-01T13:26:41;99552.47;;;31.16;29.81
24620;BME280;12763;55.802;37.404;2022-08-01T13:29:08;99550.59;;;31.20;29.25
24620;BME280;12763;55.802;37.404;2022-08-01T13:31:36;99558.06;;;31.25;29.42
24620;BME280;12763;55.802;37.404;2022-08-01T13:34:03;99559.56;;;32.19;28.74
24620;BME280;12763;55.802;37.404;2022-08-01T13:36:29;99558.34;;;32.20;27.85
24620;BME280;12763;55.802;37.404;2022-08-01T13:38:58;99548.19;;;31.95;28.35
24620;BME280;12763;55.802;37.404;2022-08-01T13:41:43;99558.19;;;31.77;28.74
24620;BME280;12763;55.802;37.404;2022-08-01T13:44:09;99551.06;;;31.83;29.23
24620;BME280;12763;55.802;37.404;2022-08-01T13:46:37;99553.94;;;31.59;29.54